Terminal Aerodrome Forecast
Issued by NWS Cleveland, OH

Home | Current Version | Previous Version | Graphics & Text | Print | Product List | Glossary On
Versions: 1 2 3 4 5 6 7 8 9 10 11 12 13 14 15 16 17 18 19 20 21
000
FTUS41 KCLE 221300 AAA
TAFYNG
TAF AMD
KYNG 221304Z 2213/2312 25011KT 3SM -RA BR BKN008 OVC015
     FM221500 29012KT 5SM BR BKN010 OVC025
     FM221700 30014KT P6SM BKN015 OVC025
     FM221900 31016G24KT P6SM BKN025
     FM230100 31010KT P6SM VCSH BKN030=

USA.gov is the U.S. government's official web portal to all federal, state and local government web resources and services.